createdAt,value
2023-03-20T00:00:18.929Z,231.56521739130434
2023-03-20T00:06:37.824Z,232.11371237458195
2023-03-20T00:12:56.701Z,237.01003344481606
2023-03-20T00:19:15.512Z,237.34113712374582
2023-03-20T00:26:12.964Z,238.6722408026756
2023-03-20T00:32:32.577Z,231.01003344481606
2023-03-20T00:38:51.851Z,220.8695652173913
2023-03-20T00:47:32.752Z,224.87959866220737
2023-03-20T00:55:41.786Z,229.46822742474916
2023-03-20T01:02:01.573Z,220.6722408026756
2023-03-20T01:08:20.595Z,224.0267558528428
2023-03-20T01:22:10.585Z,225.60535117056855
2023-03-20T01:30:59.037Z,194.68896321070235
2023-03-20T01:37:18.185Z,186.60535117056855
2023-03-20T01:43:36.919Z,165.28428093645485
2023-03-20T01:51:26.010Z,125.93979933110369
2023-03-20T01:57:54.237Z,83.72909698996655
2023-03-20T02:04:13.165Z,80.34782608695652
2023-03-20T02:10:32.037Z,69.16722408026756
2023-03-20T02:16:53.732Z,70.33110367892976
2023-03-20T02:23:11.828Z,68.1438127090301
2023-03-20T02:35:54.938Z,64.49498327759197
2023-03-20T02:42:13.489Z,69.30434782608695
2023-03-20T02:48:32.255Z,61.896321070234116
2023-03-20T02:54:50.679Z,52.214046822742475
2023-03-20T03:01:08.827Z,56.12709030100334
2023-03-20T03:07:27.470Z,53.27759197324415
2023-03-20T03:18:22.105Z,44.03344481605351
2023-03-20T03:24:42.052Z,42.220735785953174
2023-03-20T03:31:01.339Z,50.23076923076923
2023-03-20T03:37:20.306Z,46.82608695652174
2023-03-20T03:46:50.932Z,52.72240802675585
2023-03-20T03:53:09.862Z,53.89297658862876
2023-03-20T03:59:28.605Z,61.85953177257525
2023-03-20T04:05:47.261Z,67.51839464882943
2023-03-20T04:12:06.307Z,67.1438127090301
2023-03-20T04:18:25.918Z,76.08695652173913
2023-03-20T04:30:41.064Z,83.36120401337793
2023-03-20T04:36:59.955Z,81.90635451505017
2023-03-20T04:43:19.505Z,80.51839464882943
2023-03-20T04:49:38.429Z,91.7123745819398
2023-03-20T05:07:27.723Z,77.38795986622074
2023-03-20T05:13:46.878Z,81.86622073578596
2023-03-20T05:20:05.798Z,82.33779264214047
2023-03-20T05:26:25.329Z,82.123745819398
2023-03-20T05:32:44.650Z,95.08026755852843
2023-03-20T05:39:03.633Z,91.21404682274247
2023-03-20T05:47:21.177Z,95.65217391304348
2023-03-20T05:53:40.057Z,101.42809364548495
2023-03-20T06:00:04.049Z,107.29431438127091
2023-03-20T06:06:54.808Z,110.10702341137124
2023-03-20T06:19:26.850Z,93.75919732441471
2023-03-20T06:25:49.382Z,100.23076923076923
2023-03-20T06:32:12.816Z,101.25418060200668
2023-03-20T06:38:48.860Z,100.12040133779264
2023-03-20T06:45:11.990Z,88.42809364548495
2023-03-20T06:51:35.926Z,96.72909698996655
2023-03-20T06:58:01.036Z,91.72575250836121
2023-03-20T07:04:24.795Z,96.4648829431438
2023-03-20T07:10:46.922Z,92.8695652173913
2023-03-20T07:17:09.505Z,86.55183946488295
2023-03-20T07:23:32.911Z,98.7123745819398
2023-03-20T07:38:37.004Z,91.65551839464882
2023-03-20T07:50:43.278Z,88.90635451505017
2023-03-20T07:57:04.633Z,101.20066889632108
2023-03-20T08:15:41.529Z,86.90301003344482
2023-03-20T08:22:03.786Z,84.37458193979933
2023-03-20T08:32:16.035Z,88.02341137123746
2023-03-20T08:41:13.497Z,90.07023411371237
2023-03-20T08:47:36.008Z,88.123745819398
2023-03-20T08:53:58.097Z,77.46822742474916
2023-03-20T09:00:21.160Z,91.55183946488295
2023-03-20T09:06:43.837Z,85.40133779264214
2023-03-20T09:13:25.349Z,82.53177257525084
2023-03-20T09:19:48.861Z,90.89966555183946
2023-03-20T09:30:35.882Z,95.48160535117057
2023-03-20T09:36:58.328Z,96.09364548494983
2023-03-20T09:48:18.629Z,80.31438127090301
2023-03-20T09:54:53.163Z,80.32775919732441
2023-03-20T10:01:18.135Z,77.55852842809365
2023-03-20T10:07:40.420Z,83.69565217391305
2023-03-20T10:14:02.578Z,79.53846153846153
2023-03-20T10:20:24.696Z,69.93979933110369
2023-03-20T10:28:03.119Z,71.4448160535117
2023-03-20T10:34:37.386Z,62.1505016722408
2023-03-20T10:40:59.005Z,57.38795986622073
2023-03-20T10:47:20.656Z,55.013377926421406
2023-03-20T10:53:42.572Z,50.207357859531776
2023-03-20T11:00:05.097Z,55.2876254180602
2023-03-20T11:06:27.411Z,46.635451505016725
2023-03-20T11:12:49.315Z,46.531772575250834
2023-03-20T11:19:10.989Z,45.324414715719065
2023-03-20T11:25:33.532Z,47.130434782608695
2023-03-20T11:34:55.256Z,44.49832775919732
2023-03-20T11:53:01.119Z,53.50167224080268
2023-03-20T11:59:23.962Z,54.709030100334445
2023-03-20T12:05:45.546Z,59.61204013377927
2023-03-20T12:25:16.295Z,57.7324414715719
2023-03-20T12:31:38.915Z,55.62876254180602
2023-03-20T12:38:00.854Z,62.197324414715716
2023-03-20T12:44:23.760Z,66.23745819397993
2023-03-20T12:59:16.340Z,72.11705685618729
2023-03-20T13:05:38.551Z,66.4314381270903
2023-03-20T13:12:01.065Z,72.90969899665552
2023-03-20T13:18:22.741Z,74.62541806020067
2023-03-20T13:24:44.777Z,68.96321070234114
2023-03-20T13:31:06.433Z,66.80267558528428
2023-03-20T13:43:16.382Z,72.29096989966555
2023-03-20T13:49:39.324Z,67.00334448160535
2023-03-20T13:59:22.970Z,79.2675585284281
2023-03-20T14:05:45.609Z,74.33110367892976
2023-03-20T14:14:39.327Z,64.76923076923077
2023-03-20T14:21:03.050Z,69.24414715719064
2023-03-20T14:30:46.937Z,76.5351170568562
2023-03-20T14:38:04.567Z,66.01672240802675
2023-03-20T14:44:27.128Z,65.50836120401338
2023-03-20T14:50:49.100Z,84.37123745819397
2023-03-20T14:57:10.955Z,66.38127090301003
2023-03-20T15:03:33.420Z,75.1571906354515
2023-03-20T15:09:55.224Z,62.47826086956522
2023-03-20T15:16:16.699Z,67.48829431438126
2023-03-20T15:22:39.334Z,70.11036789297658
2023-03-20T15:29:01.250Z,72.18394648829431
2023-03-20T15:35:23.592Z,68.91638795986623
2023-03-20T15:41:45.647Z,74.62207357859532
2023-03-20T15:48:07.410Z,75.42809364548495
2023-03-20T16:00:59.891Z,62.53846153846154
2023-03-20T16:07:22.853Z,63.4314381270903
2023-03-20T16:19:53.607Z,62.23411371237458
2023-03-20T16:29:47.125Z,64.37123745819397
2023-03-20T16:36:13.512Z,68.876254180602
2023-03-20T16:42:50.469Z,66.0200668896321
2023-03-20T16:49:12.145Z,54.381270903010034
2023-03-20T17:04:47.008Z,55.414715719063544
2023-03-20T17:11:09.139Z,59.76588628762542
2023-03-20T17:17:30.309Z,56.82608695652174
2023-03-20T17:23:49.349Z,59.618729096989966
2023-03-20T17:30:11.219Z,61.391304347826086
2023-03-20T17:36:31.224Z,55.38461538461539
2023-03-20T17:42:49.969Z,60.92642140468227
2023-03-20T17:53:12.694Z,54.207357859531776
2023-03-20T17:59:32.371Z,51.65217391304348
2023-03-20T18:05:52.112Z,47.61204013377927
2023-03-20T18:12:14.983Z,55.67224080267559
2023-03-20T18:18:36.100Z,55.18394648829432
2023-03-20T18:24:55.621Z,61.26086956521739
2023-03-20T18:36:06.739Z,65.9933110367893
2023-03-20T18:42:25.922Z,70.6989966555184
2023-03-20T18:48:44.740Z,77.89966555183946
2023-03-20T19:01:42.247Z,68.61538461538461
2023-03-20T19:08:02.311Z,71.16722408026756
2023-03-20T19:14:21.555Z,66.18394648829431
2023-03-20T19:20:40.610Z,73.2675585284281
2023-03-20T19:27:17.771Z,85.6989966555184
2023-03-20T19:33:38.323Z,91.25083612040133
2023-03-20T19:46:09.257Z,85.75250836120401
2023-03-20T19:52:29.485Z,91.11371237458194
2023-03-20T19:58:48.752Z,100.78260869565217
2023-03-20T20:05:09.020Z,104.20401337792642
2023-03-20T20:11:28.399Z,101.72575250836121
2023-03-20T20:23:21.229Z,103.46153846153847
2023-03-20T20:44:33.898Z,121.32775919732441
2023-03-20T20:51:48.332Z,133.7826086956522
2023-03-20T21:08:00.161Z,156.30100334448161
2023-03-20T21:14:22.052Z,174.83277591973246
2023-03-20T21:20:43.671Z,188.67558528428094
2023-03-20T21:28:24.580Z,203.89966555183946
2023-03-20T21:34:44.598Z,206.2608695652174
2023-03-20T21:49:24.135Z,248.31772575250835
2023-03-20T21:57:27.907Z,244.67558528428094
2023-03-20T22:04:54.965Z,274.29765886287623
2023-03-20T22:28:33.277Z,279.3076923076923
2023-03-20T22:40:39.336Z,279.53511705685617
2023-03-20T22:47:09.196Z,266.428093645485
2023-03-20T22:59:43.556Z,272.55183946488296
2023-03-20T23:09:18.161Z,271.2842809364549
2023-03-20T23:21:52.391Z,262.83946488294316
2023-03-20T23:28:12.048Z,270.4581939799331
2023-03-20T23:34:31.487Z,262.96655518394647
2023-03-20T23:43:14.157Z,269.2341137123746
2023-03-20T23:49:34.971Z,252.46822742474916
